Wetterdaten: Woche 18.05.15 - 24.05.15 (KW21)
Datum Zeit Temp. A. Feuchte A. Luftdruck Regen Wind Richtung Taupunkt Windchill Windben
18.05.2015 00:00 14,8 C 69 % 1020,6 hPa 0,0 l/m 1,6 km/h N 9,1 C 14,8 C 8,1 km/h
18.05.2015 01:00 13,7 C 76 % 1020,8 hPa 0,0 l/m 1,3 km/h N 9,5 C 13,7 C 6,0 km/h
18.05.2015 02:00 12,4 C 79 % 1020,6 hPa 0,0 l/m 0,3 km/h N 8,9 C 12,4 C 3,2 km/h
18.05.2015 03:00 10,5 C 80 % 1020,3 hPa 0,0 l/m 0,0 km/h N 7,2 C 10,5 C 1,2 km/h
18.05.2015 04:00 9,2 C 82 % 1020,0 hPa 0,0 l/m 0,0 km/h N 6,2 C 9,2 C 0,8 km/h
18.05.2015 05:00 8,1 C 83 % 1019,7 hPa 0,0 l/m 0,0 km/h N 5,4 C 8,1 C 0,0 km/h
18.05.2015 06:00 8,1 C 84 % 1019,5 hPa 0,0 l/m 0,1 km/h N 5,6 C 8,1 C 2,0 km/h
18.05.2015 07:00 10,0 C 84 % 1019,1 hPa 0,0 l/m 0,1 km/h N 7,4 C 10,0 C 2,4 km/h
18.05.2015 08:00 13,9 C 72 % 1018,6 hPa 0,0 l/m 1,2 km/h N 8,8 C 13,9 C 6,4 km/h
18.05.2015 09:00 15,1 C 61 % 1018,0 hPa 0,0 l/m 3,0 km/h N 7,7 C 15,1 C 11,3 km/h
18.05.2015 10:00 16,9 C 58 % 1017,1 hPa 0,0 l/m 3,9 km/h N 8,7 C 16,9 C 13,3 km/h
18.05.2015 11:00 19,2 C 55 % 1016,0 hPa 0,0 l/m 4,2 km/h N 9,9 C 19,2 C 14,9 km/h
18.05.2015 12:00 20,5 C 55 % 1014,8 hPa 0,0 l/m 5,1 km/h N 11,1 C 20,4 C 17,7 km/h
18.05.2015 13:00 22,5 C 51 % 1013,3 hPa 0,0 l/m 7,0 km/h N 11,7 C 22,3 C 20,9 km/h
18.05.2015 14:00 23,6 C 48 % 1012,0 hPa 0,0 l/m 6,5 km/h N 12,0 C 23,5 C 19,7 km/h
18.05.2015 15:00 23,8 C 48 % 1010,7 hPa 0,0 l/m 6,1 km/h N 12,0 C 23,8 C 18,5 km/h
18.05.2015 16:00 23,9 C 48 % 1009,8 hPa 0,0 l/m 6,1 km/h N 12,1 C 23,8 C 18,5 km/h
18.05.2015 17:00 23,7 C 49 % 1009,1 hPa 0,0 l/m 6,9 km/h N 12,2 C 23,6 C 20,5 km/h
18.05.2015 18:00 23,6 C 49 % 1008,3 hPa 0,0 l/m 7,1 km/h N 12,3 C 23,3 C 21,3 km/h
18.05.2015 19:00 22,5 C 53 % 1007,9 hPa 0,0 l/m 6,5 km/h N 12,3 C 22,4 C 19,7 km/h
18.05.2015 20:00 20,8 C 57 % 1007,5 hPa 0,0 l/m 6,0 km/h N 12,0 C 20,8 C 17,3 km/h
18.05.2015 21:00 19,3 C 63 % 1007,7 hPa 0,0 l/m 3,3 km/h N 11,9 C 19,3 C 10,9 km/h
18.05.2015 22:00 17,9 C 67 % 1007,6 hPa 0,0 l/m 0,3 km/h N 11,7 C 17,9 C 4,4 km/h
18.05.2015 23:00 16,2 C 72 % 1007,5 hPa 0,0 l/m 0,1 km/h N 11,2 C 16,2 C 2,4 km/h
19.05.2015 00:00 15,7 C 75 % 1007,0 hPa 0,0 l/m 1,0 km/h N 11,3 C 15,7 C 5,2 km/h
19.05.2015 01:00 15,8 C 73 % 1006,5 hPa 0,0 l/m 0,1 km/h N 11,0 C 15,8 C 2,4 km/h
19.05.2015 02:00 13,8 C 78 % 1006,5 hPa 0,0 l/m 0,2 km/h N 10,1 C 13,8 C 3,2 km/h
19.05.2015 03:00 12,2 C 82 % 1006,3 hPa 0,0 l/m 0,1 km/h N 9,2 C 12,2 C 0,8 km/h
19.05.2015 04:00 11,1 C 83 % 1005,8 hPa 0,0 l/m 0,0 km/h N 8,4 C 11,1 C 0,0 km/h
19.05.2015 05:00 10,7 C 84 % 1005,6 hPa 0,0 l/m 0,0 km/h N 8,0 C 10,7 C 0,0 km/h
19.05.2015 06:00 11,0 C 82 % 1005,9 hPa 0,0 l/m 0,0 km/h N 8,0 C 11,0 C 0,4 km/h
19.05.2015 07:00 13,1 C 81 % 1006,2 hPa 0,0 l/m 0,2 km/h N 10,0 C 13,1 C 2,8 km/h
19.05.2015 08:00 17,0 C 78 % 1006,5 hPa 0,0 l/m 0,4 km/h N 13,0 C 17,0 C 4,0 km/h
19.05.2015 09:00 20,5 C 66 % 1006,6 hPa 0,0 l/m 4,4 km/h N 13,8 C 20,5 C 12,5 km/h
19.05.2015 10:00 21,9 C 64 % 1007,0 hPa 0,0 l/m 8,0 km/h N 14,8 C 21,4 C 20,5 km/h
19.05.2015 11:00 22,6 C 60 % 1007,4 hPa 0,0 l/m 10,9 km/h N 14,5 C 21,3 C 25,7 km/h
19.05.2015 12:00 22,6 C 59 % 1007,9 hPa 0,0 l/m 10,6 km/h N 14,2 C 21,4 C 27,0 km/h
19.05.2015 13:00 21,5 C 57 % 1008,5 hPa 0,0 l/m 8,7 km/h N 12,6 C 20,7 C 27,4 km/h
19.05.2015 14:00 20,2 C 60 % 1009,1 hPa 0,0 l/m 9,6 km/h N 12,1 C 19,1 C 26,9 km/h
19.05.2015 15:00 19,4 C 63 % 1009,4 hPa 0,0 l/m 8,8 km/h N 12,1 C 18,4 C 22,1 km/h
19.05.2015 16:00 19,1 C 63 % 1009,2 hPa 0,0 l/m 6,8 km/h N 11,9 C 18,8 C 19,7 km/h
19.05.2015 17:00 18,9 C 64 % 1008,8 hPa 0,0 l/m 6,1 km/h N 11,8 C 18,7 C 16,1 km/h
19.05.2015 18:00 18,6 C 64 % 1008,5 hPa 0,0 l/m 3,8 km/h N 11,5 C 18,6 C 13,7 km/h
19.05.2015 19:00 18,2 C 64 % 1008,4 hPa 0,0 l/m 1,5 km/h N 11,2 C 18,2 C 8,4 km/h
19.05.2015 20:00 17,5 C 67 % 1008,6 hPa 0,0 l/m 1,2 km/h N 11,1 C 17,5 C 8,0 km/h
19.05.2015 21:00 16,7 C 71 % 1008,9 hPa 0,0 l/m 2,7 km/h N 11,4 C 16,7 C 10,1 km/h
19.05.2015 22:00 15,6 C 76 % 1009,3 hPa 0,8 l/m 2,8 km/h N 11,4 C 15,6 C 8,9 km/h
19.05.2015 23:00 14,6 C 81 % 1009,6 hPa 0,0 l/m 2,3 km/h N 11,3 C 14,6 C 10,1 km/h
20.05.2015 00:00 14,4 C 81 % 1009,8 hPa 0,0 l/m 2,7 km/h N 11,1 C 14,4 C 9,7 km/h
20.05.2015 01:00 14,6 C 80 % 1009,3 hPa 0,0 l/m 1,4 km/h N 11,2 C 14,6 C 7,6 km/h
20.05.2015 02:00 14,4 C 82 % 1009,2 hPa 0,0 l/m 1,9 km/h N 11,3 C 14,4 C 9,3 km/h
20.05.2015 03:00 14,2 C 81 % 1009,0 hPa 0,0 l/m 0,2 km/h N 11,0 C 14,2 C 2,8 km/h
20.05.2015 04:00 13,8 C 83 % 1008,8 hPa 0,0 l/m 0,3 km/h N 10,9 C 13,8 C 3,6 km/h
20.05.2015 05:00 13,5 C 83 % 1008,7 hPa 0,3 l/m 0,4 km/h N 10,7 C 13,5 C 4,8 km/h
20.05.2015 06:00 13,4 C 84 % 1008,7 hPa 0,0 l/m 0,2 km/h N 10,7 C 13,4 C 2,8 km/h
20.05.2015 07:00 14,7 C 83 % 1008,5 hPa 0,0 l/m 0,1 km/h N 11,8 C 14,7 C 2,4 km/h
20.05.2015 08:00 16,9 C 75 % 1008,4 hPa 0,0 l/m 2,5 km/h N 12,4 C 16,9 C 8,9 km/h
20.05.2015 09:00 18,2 C 69 % 1007,8 hPa 0,0 l/m 2,3 km/h N 12,4 C 18,2 C 8,0 km/h
20.05.2015 10:00 20,0 C 65 % 1007,5 hPa 0,0 l/m 1,3 km/h N 13,1 C 20,0 C 8,8 km/h
20.05.2015 11:00 21,1 C 63 % 1007,5 hPa 0,0 l/m 1,3 km/h N 13,8 C 21,1 C 7,2 km/h
20.05.2015 12:00 19,0 C 70 % 1008,3 hPa 0,0 l/m 10,1 km/h N 13,4 C 17,5 C 22,5 km/h
20.05.2015 13:00 17,1 C 72 % 1009,0 hPa 0,0 l/m 13,0 km/h N 12,0 C 14,4 C 29,4 km/h
20.05.2015 14:00 14,8 C 76 % 1010,0 hPa 0,0 l/m 12,7 km/h N 10,5 C 11,8 C 30,6 km/h
20.05.2015 15:00 13,5 C 77 % 1010,2 hPa 0,0 l/m 10,7 km/h N 9,5 C 11,2 C 32,6 km/h
20.05.2015 16:00 12,7 C 78 % 1011,1 hPa 0,0 l/m 7,1 km/h N 8,9 C 11,9 C 25,8 km/h
20.05.2015 17:00 11,8 C 82 % 1011,9 hPa 0,8 l/m 6,2 km/h N 8,7 C 11,6 C 24,1 km/h
20.05.2015 18:00 11,3 C 83 % 1012,2 hPa 1,8 l/m 7,2 km/h N 8,5 C 10,5 C 23,7 km/h
20.05.2015 19:00 11,5 C 81 % 1012,9 hPa 0,0 l/m 10,6 km/h N 8,4 C 8,9 C 27,8 km/h
20.05.2015 20:00 11,1 C 81 % 1013,8 hPa 0,5 l/m 10,9 km/h N 7,9 C 8,5 C 28,5 km/h
20.05.2015 21:00 10,4 C 83 % 1014,9 hPa 1,6 l/m 10,2 km/h N 7,7 C 7,9 C 24,5 km/h
20.05.2015 22:00 10,2 C 84 % 1014,7 hPa 0,8 l/m 11,0 km/h N 7,6 C 7,3 C 26,9 km/h
20.05.2015 23:00 10,2 C 84 % 1015,1 hPa 0,0 l/m 9,5 km/h N 7,5 C 8,1 C 20,9 km/h
21.05.2015 00:00 10,0 C 83 % 1015,5 hPa 0,0 l/m 9,4 km/h N 7,2 C 8,0 C 22,9 km/h
21.05.2015 01:00 9,9 C 82 % 1015,8 hPa 0,0 l/m 9,9 km/h N 7,1 C 7,6 C 25,3 km/h
21.05.2015 02:00 9,7 C 83 % 1016,3 hPa 0,3 l/m 9,6 km/h N 7,0 C 7,5 C 22,1 km/h
21.05.2015 03:00 9,5 C 84 % 1016,5 hPa 0,0 l/m 6,7 km/h N 7,0 C 9,0 C 17,3 km/h
21.05.2015 04:00 9,5 C 84 % 1016,7 hPa 0,0 l/m 7,2 km/h N 7,0 C 8,8 C 19,3 km/h
21.05.2015 05:00 9,7 C 84 % 1016,8 hPa 0,0 l/m 7,5 km/h N 7,1 C 8,9 C 20,5 km/h
21.05.2015 06:00 9,9 C 83 % 1017,6 hPa 0,0 l/m 8,3 km/h N 7,2 C 8,6 C 20,1 km/h
21.05.2015 07:00 10,3 C 82 % 1018,0 hPa 0,0 l/m 9,1 km/h N 7,4 C 8,5 C 22,5 km/h
21.05.2015 08:00 10,2 C 83 % 1018,7 hPa 0,0 l/m 7,9 km/h N 7,4 C 9,2 C 19,3 km/h
21.05.2015 09:00 10,5 C 83 % 1019,1 hPa 0,0 l/m 8,3 km/h N 7,7 C 9,2 C 19,7 km/h
21.05.2015 10:00 10,9 C 83 % 1019,3 hPa 0,0 l/m 9,7 km/h N 8,1 C 8,8 C 23,7 km/h
21.05.2015 11:00 10,7 C 83 % 1019,9 hPa 0,0 l/m 8,2 km/h N 8,0 C 9,5 C 21,7 km/h
21.05.2015 12:00 11,1 C 83 % 1019,9 hPa 0,0 l/m 7,9 km/h N 8,3 C 10,1 C 18,9 km/h
21.05.2015 13:00 11,7 C 82 % 1019,9 hPa 0,0 l/m 6,8 km/h N 8,7 C 11,5 C 19,3 km/h
21.05.2015 14:00 12,1 C 81 % 1019,3 hPa 0,0 l/m 8,9 km/h N 8,9 C 10,6 C 21,3 km/h
21.05.2015 15:00 12,0 C 81 % 1019,8 hPa 0,0 l/m 8,3 km/h N 8,8 C 10,8 C 22,1 km/h
21.05.2015 16:00 11,9 C 82 % 1019,7 hPa 0,0 l/m 8,2 km/h N 8,8 C 10,8 C 19,3 km/h
21.05.2015 17:00 12,3 C 80 % 1019,6 hPa 0,0 l/m 9,5 km/h N 9,0 C 10,4 C 20,9 km/h
21.05.2015 18:00 12,3 C 80 % 1020,3 hPa 0,0 l/m 8,3 km/h N 8,9 C 11,1 C 20,9 km/h
21.05.2015 19:00 12,3 C 80 % 1020,4 hPa 0,0 l/m 8,8 km/h N 8,9 C 10,8 C 20,5 km/h
21.05.2015 20:00 12,2 C 80 % 1020,3 hPa 0,0 l/m 10,1 km/h N 8,8 C 9,9 C 22,1 km/h
21.05.2015 21:00 12,0 C 81 % 1020,9 hPa 0,0 l/m 10,2 km/h N 8,8 C 9,8 C 23,7 km/h
21.05.2015 22:00 12,0 C 80 % 1021,4 hPa 0,0 l/m 11,1 km/h N 8,6 C 9,3 C 27,8 km/h
21.05.2015 23:00 12,0 C 79 % 1021,6 hPa 0,0 l/m 10,4 km/h N 8,5 C 9,6 C 24,1 km/h
22.05.2015 00:00 12,1 C 79 % 1021,7 hPa 0,0 l/m 9,3 km/h N 8,5 C 10,4 C 22,9 km/h
22.05.2015 01:00 12,0 C 78 % 1021,5 hPa 0,0 l/m 9,6 km/h N 8,2 C 10,1 C 23,7 km/h
22.05.2015 02:00 11,9 C 79 % 1021,5 hPa 0,0 l/m 12,2 km/h N 8,3 C 8,6 C 25,3 km/h
22.05.2015 03:00 11,8 C 78 % 1021,8 hPa 0,0 l/m 12,3 km/h N 8,1 C 8,5 C 26,1 km/h
22.05.2015 04:00 11,8 C 78 % 1021,6 hPa 0,0 l/m 10,5 km/h N 8,1 C 9,3 C 23,7 km/h
22.05.2015 05:00 11,6 C 79 % 1021,6 hPa 0,0 l/m 7,1 km/h N 8,0 C 11,1 C 18,5 km/h
22.05.2015 06:00 11,8 C 77 % 1021,6 hPa 0,0 l/m 8,1 km/h N 7,9 C 10,7 C 21,3 km/h
22.05.2015 07:00 12,0 C 76 % 1021,8 hPa 0,0 l/m 8,0 km/h N 7,9 C 11,0 C 20,5 km/h
22.05.2015 08:00 12,5 C 75 % 1021,9 hPa 0,0 l/m 9,4 km/h N 8,1 C 10,7 C 24,1 km/h
22.05.2015 09:00 13,1 C 72 % 1021,8 hPa 0,0 l/m 10,2 km/h N 8,2 C 10,9 C 24,5 km/h
22.05.2015 10:00 13,6 C 72 % 1021,5 hPa 0,0 l/m 11,2 km/h N 8,6 C 11,0 C 25,3 km/h
22.05.2015 11:00 14,6 C 70 % 1021,3 hPa 0,0 l/m 9,1 km/h N 9,1 C 13,2 C 21,7 km/h
22.05.2015 12:00 15,1 C 66 % 1021,0 hPa 0,0 l/m 11,7 km/h N 8,8 C 12,6 C 29,4 km/h
22.05.2015 13:00 14,1 C 73 % 1020,8 hPa 0,5 l/m 9,6 km/h N 9,3 C 12,3 C 26,6 km/h
22.05.2015 14:00 13,3 C 81 % 1020,8 hPa 0,5 l/m 4,8 km/h N 10,0 C 13,3 C 11,7 km/h
22.05.2015 15:00 13,0 C 83 % 1020,3 hPa 0,5 l/m 5,3 km/h N 10,2 C 13,0 C 12,9 km/h
22.05.2015 16:00 13,3 C 83 % 1019,8 hPa 0,0 l/m 5,3 km/h N 10,5 C 13,3 C 14,5 km/h
22.05.2015 17:00 13,0 C 83 % 1019,4 hPa 0,3 l/m 4,2 km/h N 10,2 C 13,0 C 13,3 km/h
22.05.2015 18:00 12,6 C 84 % 1019,1 hPa 0,3 l/m 3,6 km/h N 10,0 C 12,6 C 10,9 km/h
22.05.2015 19:00 12,4 C 84 % 1018,8 hPa 0,0 l/m 4,2 km/h N 9,8 C 12,4 C 11,3 km/h
22.05.2015 20:00 12,6 C 82 % 1018,6 hPa 0,0 l/m 5,4 km/h N 9,6 C 12,5 C 14,5 km/h
22.05.2015 21:00 12,0 C 84 % 1018,5 hPa 1,0 l/m 5,8 km/h N 9,3 C 12,0 C 15,7 km/h
22.05.2015 22:00 11,5 C 84 % 1018,2 hPa 1,6 l/m 6,0 km/h N 8,9 C 11,5 C 15,7 km/h
22.05.2015 23:00 11,3 C 83 % 1017,9 hPa 0,5 l/m 4,1 km/h N 8,5 C 11,3 C 11,7 km/h
23.05.2015 00:00 11,3 C 83 % 1017,5 hPa 0,3 l/m 4,4 km/h N 8,5 C 11,3 C 13,3 km/h
23.05.2015 01:00 11,4 C 83 % 1017,0 hPa 0,0 l/m 5,7 km/h N 8,6 C 11,4 C 14,9 km/h
23.05.2015 02:00 11,4 C 84 % 1016,3 hPa 0,0 l/m 6,8 km/h N 8,7 C 11,1 C 18,1 km/h
23.05.2015 03:00 11,4 C 84 % 1015,6 hPa 0,0 l/m 6,5 km/h N 8,8 C 11,1 C 18,1 km/h
23.05.2015 04:00 11,0 C 83 % 1015,0 hPa 2,3 l/m 6,0 km/h N 8,3 C 11,0 C 18,5 km/h
23.05.2015 05:00 10,9 C 83 % 1015,0 hPa 2,3 l/m 7,0 km/h N 8,0 C 10,4 C 18,5 km/h
23.05.2015 06:00 10,8 C 82 % 1014,8 hPa 2,6 l/m 6,8 km/h N 7,9 C 10,2 C 18,9 km/h
23.05.2015 07:00 10,8 C 82 % 1014,5 hPa 1,8 l/m 7,2 km/h N 7,9 C 10,2 C 18,5 km/h
23.05.2015 08:00 10,8 C 82 % 1014,3 hPa 1,8 l/m 8,6 km/h N 7,8 C 9,3 C 20,9 km/h
23.05.2015 09:00 10,8 C 81 % 1013,9 hPa 1,3 l/m 7,6 km/h N 7,7 C 10,0 C 20,1 km/h
23.05.2015 10:00 10,9 C 82 % 1013,8 hPa 1,0 l/m 7,8 km/h N 7,9 C 9,9 C 19,7 km/h
23.05.2015 11:00 10,9 C 81 % 1014,4 hPa 4,9 l/m 4,2 km/h N 7,9 C 10,9 C 14,1 km/h
23.05.2015 12:00 11,1 C 81 % 1013,7 hPa 4,4 l/m 7,8 km/h N 7,9 C 10,1 C 19,3 km/h
23.05.2015 13:00 11,4 C 81 % 1013,3 hPa 1,3 l/m 8,7 km/h N 8,3 C 9,9 C 20,9 km/h
23.05.2015 14:00 11,6 C 81 % 1013,5 hPa 4,2 l/m 6,7 km/h N 8,5 C 11,2 C 16,1 km/h
23.05.2015 15:00 11,9 C 81 % 1013,2 hPa 0,3 l/m 7,4 km/h N 8,7 C 11,2 C 18,9 km/h
23.05.2015 16:00 12,0 C 81 % 1013,4 hPa 1,8 l/m 4,1 km/h N 8,8 C 11,9 C 12,5 km/h
23.05.2015 17:00 12,1 C 80 % 1013,5 hPa 1,3 l/m 3,6 km/h N 8,8 C 12,1 C 10,9 km/h
23.05.2015 18:00 12,2 C 81 % 1013,4 hPa 0,0 l/m 3,8 km/h N 9,0 C 12,2 C 10,5 km/h
23.05.2015 19:00 12,0 C 80 % 1013,5 hPa 0,0 l/m 4,1 km/h N 8,7 C 12,0 C 10,1 km/h
23.05.2015 20:00 11,8 C 80 % 1013,8 hPa 0,3 l/m 3,3 km/h N 8,4 C 11,8 C 9,6 km/h
23.05.2015 21:00 11,7 C 80 % 1014,3 hPa 0,0 l/m 2,7 km/h N 8,4 C 11,7 C 10,5 km/h
23.05.2015 22:00 11,6 C 81 % 1014,5 hPa 0,0 l/m 3,8 km/h N 8,3 C 11,6 C 10,1 km/h
23.05.2015 23:00 11,4 C 81 % 1014,7 hPa 0,0 l/m 3,7 km/h N 8,3 C 11,4 C 10,1 km/h
24.05.2015 00:00 11,5 C 81 % 1015,1 hPa 0,0 l/m 3,3 km/h N 8,3 C 11,5 C 9,7 km/h
24.05.2015 01:00 11,3 C 81 % 1014,9 hPa 0,0 l/m 2,9 km/h N 8,2 C 11,3 C 11,3 km/h
24.05.2015 02:00 11,4 C 81 % 1014,8 hPa 0,0 l/m 4,1 km/h N 8,3 C 11,4 C 12,9 km/h
24.05.2015 03:00 11,3 C 82 % 1014,8 hPa 0,0 l/m 3,3 km/h N 8,3 C 11,3 C 12,1 km/h
24.05.2015 04:00 11,1 C 82 % 1014,7 hPa 0,0 l/m 4,3 km/h N 8,2 C 11,1 C 11,7 km/h
24.05.2015 05:00 11,1 C 82 % 1015,0 hPa 0,0 l/m 3,9 km/h N 8,1 C 11,1 C 12,1 km/h
24.05.2015 06:00 11,1 C 82 % 1015,3 hPa 0,0 l/m 5,1 km/h N 8,1 C 11,1 C 12,1 km/h
24.05.2015 07:00 11,2 C 83 % 1015,7 hPa 0,0 l/m 4,6 km/h N 8,4 C 11,2 C 14,1 km/h
24.05.2015 08:00 11,2 C 83 % 1016,4 hPa 0,0 l/m 5,6 km/h N 8,4 C 11,2 C 14,5 km/h
24.05.2015 09:00 11,3 C 83 % 1016,8 hPa 0,0 l/m 5,8 km/h N 8,5 C 11,3 C 14,9 km/h
24.05.2015 10:00 11,5 C 83 % 1017,3 hPa 0,0 l/m 4,9 km/h N 8,7 C 11,5 C 14,5 km/h
24.05.2015 11:00 12,1 C 83 % 1017,3 hPa 0,0 l/m 6,7 km/h N 9,3 C 11,5 C 16,9 km/h
24.05.2015 12:00 13,0 C 84 % 1017,3 hPa 0,0 l/m 8,4 km/h N 10,3 C 11,8 C 20,1 km/h
24.05.2015 13:00 13,2 C 83 % 1017,4 hPa 0,0 l/m 8,3 km/h N 10,4 C 12,0 C 20,9 km/h
24.05.2015 14:00 13,5 C 82 % 1017,2 hPa 0,0 l/m 9,7 km/h N 10,5 C 11,6 C 22,5 km/h
24.05.2015 15:00 13,7 C 82 % 1017,1 hPa 0,0 l/m 7,8 km/h N 10,8 C 12,9 C 20,9 km/h
24.05.2015 16:00 13,5 C 84 % 1017,0 hPa 0,0 l/m 7,2 km/h N 10,8 C 13,0 C 20,1 km/h
24.05.2015 17:00 13,5 C 83 % 1016,6 hPa 0,0 l/m 9,3 km/h N 10,7 C 11,8 C 22,5 km/h
24.05.2015 18:00 13,4 C 83 % 1016,6 hPa 0,0 l/m 7,9 km/h N 10,6 C 12,5 C 20,9 km/h
24.05.2015 19:00 13,1 C 83 % 1016,5 hPa 0,0 l/m 9,1 km/h N 10,3 C 11,6 C 22,9 km/h
24.05.2015 20:00 13,0 C 83 % 1016,4 hPa 0,0 l/m 6,2 km/h N 10,2 C 12,8 C 14,9 km/h
24.05.2015 21:00 12,9 C 83 % 1016,6 hPa 0,0 l/m 6,0 km/h N 10,1 C 12,9 C 16,9 km/h
24.05.2015 22:00 12,7 C 83 % 1016,4 hPa 0,0 l/m 7,3 km/h N 9,9 C 12,2 C 19,7 km/h
24.05.2015 23:00 12,5 C 83 % 1015,8 hPa 0,0 l/m 7,3 km/h N 9,7 C 11,9 C 21,3 km/h
Min-Datum _ 18.05.15 18.05.15 19.05.15 - 18.05.15 - 18.05.15 20.05.15 18.05.15
_ Min-Zeit 05:30 14:45 05:00 - 02:45 - 05:30 22:30 02:45
Minimum _ 7,8 C 47 % 1005,5 hPa - 0,0 km/h - 5,1 C 6,4 C 0,0 km/h
Max-Datum _ 18.05.15 18.05.15 22.05.15 23.05.15 20.05.15 - 19.05.15 18.05.15 20.05.15
_ Max-Zeit 16:15 05:45 07:30 11:15 13:00 - 10:30 16:15 20:15
Maximum _ 24,1 C 84 % 1022,1 hPa 4,9 l/m 14,7 km/h
N
- 14,9 C 24,0 C 38,6 km/h
N
Durchschnitt _ 13,7 C 77 % 1014,6 hPa #43,9 l/m 5,9 km/h N 9,5 C 13,0 C 16,0 km/h